Isis — WDH6275 — position and weather

sailwx.info

Track history (hours):
 
Tides and Currents Weather Stations Pressure Air Temp Water Temp Dewpoint Dewpoint Depression Visibility Wind Speed Wind Dir Waves Ship Positions

Isis

Owner: Landover Marine LLC, Newmarket, NH. More information available from US FCC via Universal Licensing System and Coast Guard Vessel Documentation Center.

Last reported at 2018-Mar-09 20:50 UTC. Time now 2018-Apr-26 03:41 UTC.
Position N 25°29' W 080°09'.
Warning: this ship's position is 47 days out of date.

Length 30 m; draft 8 m.

Type: Pleasure craft. MMSI: 367636310.

Date/timePositionNaut miles runAvg speedWind from/ knotsBaromVisibWave heightAir tempDewpointWater temp
2018-Mar-09 20:50N 25°29' W 080°09'3 8.9
2018-Mar-09 20:30N 25°32' W 080°08'3 7.1
2018-Mar-09 20:00N 25°36' W 080°07'5 9.1
2018-Mar-09 19:30N 25°40' W 080°07'5 9.7
2018-Mar-09 19:01N 25°45' W 080°06'510.5
2018-Mar-09 18:30N 25°50' W 080°06'510.0
2018-Mar-09 18:00N 25°55' W 080°05'4 8.9
2018-Mar-09 17:30N 25°59' W 080°05'4 8.0
2018-Mar-09 17:00N 26°03' W 080°05'4 7.2
2018-Mar-09 16:30N 26°06' W 080°07'2 3.4
2018-Mar-09 16:00N 26°08' W 080°07'0 0.1
2018-Mar-09 15:30N 26°08' W 080°07'0 0.0
2018-Mar-09 15:00N 26°08' W 080°07'0 0.0
2018-Mar-09 14:30N 26°08' W 080°07'0 0.0
2018-Mar-09 14:00N 26°08' W 080°07'0 0.0
2018-Mar-09 13:30N 26°08' W 080°07'0 0.0
2018-Mar-09 13:00N 26°08' W 080°07'0 0.0
2018-Mar-09 12:31N 26°08' W 080°07'0 0.0
2018-Mar-09 12:00N 26°08' W 080°07'0 0.0
2018-Mar-09 11:30N 26°08' W 080°07'0 0.0
2018-Mar-09 11:00N 26°08' W 080°07'0 0.0
2018-Mar-09 10:30N 26°08' W 080°07'0 0.0
2018-Mar-09 10:00N 26°08' W 080°07'0 0.0
2018-Mar-09 09:30N 26°08' W 080°07'0 0.0
2018-Mar-09 09:00N 26°08' W 080°07'0 0.0
2018-Mar-09 08:30N 26°08' W 080°07'0 0.0
2018-Mar-09 08:00N 26°08' W 080°07'0 0.0
2018-Mar-09 07:30N 26°08' W 080°07'0 0.0
2018-Mar-09 07:00N 26°08' W 080°07'0 0.0
2018-Mar-09 06:30N 26°08' W 080°07'0 0.0
2018-Mar-09 06:00N 26°08' W 080°07'0 0.0
2018-Mar-09 05:30N 26°08' W 080°07'0 0.0
2018-Mar-09 05:00N 26°08' W 080°07'0 0.0
2018-Mar-09 04:30N 26°08' W 080°07'0 0.0
2018-Mar-09 04:00N 26°08' W 080°07'0 0.0
2018-Mar-09 03:30N 26°08' W 080°07'0 0.0
2018-Mar-09 03:00N 26°08' W 080°07'0 0.0
2018-Mar-09 02:30N 26°08' W 080°07'0 0.0
2018-Mar-09 02:00N 26°08' W 080°07'0 0.0
2018-Mar-09 01:30N 26°08' W 080°07'0 0.0
2018-Mar-09 01:00N 26°08' W 080°07'0 0.0
2018-Mar-09 00:30N 26°08' W 080°07'0 0.0
2018-Mar-09 00:00N 26°08' W 080°07'0 0.0
2018-Mar-08 23:30N 26°08' W 080°07'0 0.0
2018-Mar-08 23:00N 26°08' W 080°07'0 0.0
2018-Mar-08 22:30N 26°08' W 080°07'0 0.0
2018-Mar-08 22:00N 26°08' W 080°07'0 0.0
2018-Mar-08 21:30N 26°08' W 080°07'0 0.0
2018-Mar-08 21:00N 26°08' W 080°07'0 0.0
2018-Mar-08 20:30N 26°08' W 080°07'0 0.0
2018-Mar-07 22:00N 26°08' W 080°07'0 0.0
2018-Mar-07 21:30N 26°08' W 080°07'0 0.0
2018-Mar-07 21:00N 26°08' W 080°07'0 0.0
2018-Mar-07 20:30N 26°08' W 080°07'0 0.0
2018-Mar-07 20:00N 26°08' W 080°07'0 0.0
2018-Mar-07 19:28N 26°08' W 080°07'0 0.0
2018-Mar-07 19:00N 26°08' W 080°07'0 0.2
2018-Mar-07 18:30N 26°08' W 080°07'1 2.6
2018-Mar-07 18:00N 26°07' W 080°07'1 2.4
2018-Mar-07 17:30N 26°06' W 080°06'3 5.2
2018-Mar-07 17:00N 26°06' W 080°03'4 7.1
2018-Mar-07 16:30N 26°06' W 080°07'2 3.3
2018-Mar-07 16:00N 26°08' W 080°07'0 0.0
2018-Mar-07 15:30N 26°08' W 080°07'0 0.0
2018-Mar-07 15:00N 26°08' W 080°07'0 0.0
2018-Mar-07 14:30N 26°08' W 080°07'0 0.0
2018-Mar-07 14:00N 26°08' W 080°07'0 0.0
2018-Mar-07 13:30N 26°08' W 080°07'0 0.0
2018-Mar-07 13:00N 26°08' W 080°07'0 0.0
2018-Mar-07 12:30N 26°08' W 080°07'0 0.0
2018-Mar-07 12:00N 26°08' W 080°07'0 0.0
2018-Mar-07 11:30N 26°08' W 080°07'0 0.0
2018-Mar-07 11:00N 26°08' W 080°07'0 0.0
2018-Mar-07 10:30N 26°08' W 080°07'0 0.0
2018-Mar-07 10:00N 26°08' W 080°07'0 0.0
2018-Mar-07 09:30N 26°08' W 080°07'0 0.0
2018-Mar-07 09:00N 26°08' W 080°07'0 0.0
2018-Mar-07 08:30N 26°08' W 080°07'0 0.0
2018-Mar-07 08:00N 26°08' W 080°07'0 0.0
2018-Mar-07 07:30N 26°08' W 080°07'0 0.0
2018-Mar-07 07:00N 26°08' W 080°07'0 0.0
2018-Mar-07 06:30N 26°08' W 080°07'0 0.0
2018-Mar-07 06:00N 26°08' W 080°07'0 0.0
2018-Mar-07 05:30N 26°08' W 080°07'0 0.0
2018-Mar-07 05:00N 26°08' W 080°07'0 0.0
2018-Mar-07 04:30N 26°08' W 080°07'0 0.0
2018-Mar-07 03:59N 26°08' W 080°07'0 0.0
2018-Mar-07 03:30N 26°08' W 080°07'0 0.0
2018-Mar-07 03:01N 26°08' W 080°07'0 0.0
2018-Mar-07 02:30N 26°08' W 080°07'0 0.0
2018-Mar-07 02:00N 26°08' W 080°07'0 0.0
2018-Mar-07 01:30N 26°08' W 080°07'0 0.0
2018-Mar-07 01:00N 26°08' W 080°07'0 0.0
2018-Mar-07 00:30N 26°08' W 080°07'0 0.0
2018-Mar-07 00:00N 26°08' W 080°07'0 0.0
2018-Mar-06 23:30N 26°08' W 080°07'0 0.0
2018-Mar-06 23:00N 26°08' W 080°07'0 0.0
2018-Mar-06 22:30N 26°08' W 080°07'0 0.0
2018-Mar-06 22:00N 26°08' W 080°07'0 0.0
2018-Mar-06 21:30N 26°08' W 080°07'0 0.0
2018-Mar-06 21:00N 26°08' W 080°07'0 0.0
2018-Mar-06 20:30N 26°08' W 080°07'0 0.0
2018-Mar-06 20:00N 26°08' W 080°07'0 0.0
2018-Mar-06 19:30N 26°08' W 080°07'0 0.0
2018-Mar-06 19:00N 26°08' W 080°07'0 0.0
2018-Mar-06 18:30N 26°08' W 080°07'0 0.0
2018-Mar-06 18:00N 26°08' W 080°07'0 0.0
2018-Mar-06 17:31N 26°08' W 080°07'0 0.0
2018-Mar-06 17:00N 26°08' W 080°07'0 0.0
2018-Mar-06 16:30N 26°08' W 080°07'0 0.0
2018-Mar-06 16:00N 26°08' W 080°07'0 0.0
2018-Mar-06 15:31N 26°08' W 080°07'0 0.0
2018-Mar-06 15:00N 26°08' W 080°07'0 0.0
2018-Mar-06 14:30N 26°08' W 080°07'0 0.0
2018-Mar-06 14:00N 26°08' W 080°07'0 0.0
2018-Mar-06 13:30N 26°08' W 080°07'0 0.0
2018-Mar-06 13:00N 26°08' W 080°07'0 0.0
2018-Mar-06 12:30N 26°08' W 080°07'0 0.0
2018-Mar-06 12:00N 26°08' W 080°07'0 0.0
2018-Mar-06 11:30N 26°08' W 080°07'0 0.0
2018-Mar-06 11:00N 26°08' W 080°07'0 0.0
2018-Mar-06 10:30N 26°08' W 080°07'0 0.0
2018-Mar-06 10:00N 26°08' W 080°07'0 0.0
2018-Mar-06 09:30N 26°08' W 080°07'0 0.0
2018-Mar-06 09:00N 26°08' W 080°07'0 0.0
2018-Mar-06 08:30N 26°08' W 080°07'0 0.0
2018-Mar-06 08:00N 26°08' W 080°07'0 0.0
2018-Mar-06 07:30N 26°08' W 080°07'0 0.0
2018-Mar-06 07:00N 26°08' W 080°07'0 0.0
2018-Mar-06 06:30N 26°08' W 080°07'0 0.0
2018-Mar-06 06:00N 26°08' W 080°07'0 0.0
2018-Mar-06 05:30N 26°08' W 080°07'0 0.0
2018-Mar-06 05:00N 26°08' W 080°07'0 0.0
2018-Mar-06 04:30N 26°08' W 080°07'0 0.0
2018-Mar-06 04:00N 26°08' W 080°07'0 0.0
2018-Mar-06 03:30N 26°08' W 080°07'0 0.0
2018-Mar-06 03:00N 26°08' W 080°07'0 0.0
2018-Mar-06 02:30N 26°08' W 080°07'0 0.0
2018-Mar-06 02:00N 26°08' W 080°07'0 0.0
2018-Mar-06 01:31N 26°08' W 080°07'0 0.0
2018-Mar-06 00:59N 26°08' W 080°07'0 0.0
2018-Mar-06 00:30N 26°08' W 080°07'0 0.0
2018-Mar-06 00:01N 26°08' W 080°07'0 0.0
2018-Mar-05 23:30N 26°08' W 080°07'0 0.0
2018-Mar-05 23:00N 26°08' W 080°07'0 0.0
2018-Mar-05 22:30N 26°08' W 080°07'0 0.0
2018-Mar-05 22:00N 26°08' W 080°07'0 0.0
2018-Mar-05 21:29N 26°08' W 080°07'0 0.0
2018-Mar-05 21:00N 26°08' W 080°07'0 0.0
2018-Mar-05 20:30N 26°08' W 080°07'0 0.0
2018-Mar-05 20:00N 26°08' W 080°07'0 0.0
2018-Mar-05 19:30N 26°08' W 080°07'0 0.0
2018-Mar-05 19:00N 26°08' W 080°07'0 0.0
2018-Mar-05 18:30N 26°08' W 080°07'0 0.0
2018-Mar-05 18:00N 26°08' W 080°07'0 0.0
2018-Mar-05 17:30N 26°08' W 080°07'0 0.0
2018-Mar-05 17:00N 26°08' W 080°07'0 0.0
2018-Mar-05 16:30N 26°08' W 080°07'0 0.0
2018-Mar-05 16:00N 26°08' W 080°07'0 0.0
2018-Mar-05 15:29N 26°08' W 080°07'0 0.0
2018-Mar-05 15:00N 26°08' W 080°07'0 0.0
2018-Mar-05 14:30N 26°08' W 080°07'0 0.0
2018-Mar-05 14:00N 26°08' W 080°07'0 0.0
2018-Mar-05 13:30N 26°08' W 080°07'0 0.0
2018-Mar-05 13:00N 26°08' W 080°07'0 0.0
2018-Mar-05 12:30N 26°08' W 080°07'0 0.0
2018-Mar-05 12:00N 26°08' W 080°07'0 0.0
2018-Mar-05 11:30N 26°08' W 080°07'0 0.0
2018-Mar-05 11:00N 26°08' W 080°07'0 0.0
2018-Mar-05 10:29N 26°08' W 080°07'0 0.0
2018-Mar-05 10:00N 26°08' W 080°07'0 0.0
2018-Mar-05 09:30N 26°08' W 080°07'0 0.0
2018-Mar-05 09:00N 26°08' W 080°07'0 0.0
2018-Mar-05 08:30N 26°08' W 080°07'0 0.0
2018-Mar-05 08:00N 26°08' W 080°07'0 0.0
2018-Mar-05 07:30N 26°08' W 080°07'0 0.0
2018-Mar-05 07:00N 26°08' W 080°07'0 0.0
2018-Mar-05 06:30N 26°08' W 080°07'0 0.0
2018-Mar-05 06:00N 26°08' W 080°07'0 0.0
2018-Mar-05 05:30N 26°08' W 080°07'0 0.0
2018-Mar-05 05:00N 26°08' W 080°07'0 0.0
2018-Mar-05 04:30N 26°08' W 080°07'0 0.0
2018-Mar-05 04:00N 26°08' W 080°07'0 0.0
2018-Mar-05 03:30N 26°08' W 080°07'0 0.0
2018-Mar-05 03:00N 26°08' W 080°07'0 0.0
2018-Mar-05 02:30N 26°08' W 080°07'0 0.0
2018-Mar-05 02:00N 26°08' W 080°07'0 0.0
2018-Mar-05 01:30N 26°08' W 080°07'0 0.0
2018-Mar-05 01:00N 26°08' W 080°07'0 0.0
2018-Mar-05 00:30N 26°08' W 080°07'0 0.0
2018-Mar-05 00:00N 26°08' W 080°07'0 0.0
2018-Mar-04 23:30N 26°08' W 080°07'0 0.0
2018-Mar-04 23:00N 26°08' W 080°07'0 0.0
2018-Mar-04 22:31N 26°08' W 080°07'0 0.0
2018-Mar-04 22:00N 26°08' W 080°07'0 0.0
2018-Mar-04 21:30N 26°08' W 080°07'0 0.0
2018-Mar-04 21:00N 26°08' W 080°07'0 0.0
2018-Mar-04 20:30N 26°08' W 080°07'0 0.0
2018-Mar-04 20:00N 26°08' W 080°07'0 0.0
2018-Mar-04 19:30N 26°08' W 080°07'0 0.0
2018-Mar-04 19:01N 26°08' W 080°07'0 0.0
2018-Mar-04 18:30N 26°08' W 080°07'0 0.0
2018-Mar-04 18:00N 26°08' W 080°07'0 0.0
2018-Mar-04 17:30N 26°08' W 080°07'0 0.0
2018-Mar-04 17:00N 26°08' W 080°07'0 0.0
2018-Mar-04 16:28N 26°08' W 080°07'0 0.0
2018-Mar-04 16:00N 26°08' W 080°07'0 0.0
2018-Mar-04 15:30N 26°08' W 080°07'0 0.0
2018-Mar-04 14:57N 26°08' W 080°07'0 0.0
2018-Mar-04 14:30N 26°08' W 080°07'0 0.0
2018-Mar-04 13:57N 26°08' W 080°07'0 0.0
2018-Mar-04 13:30N 26°08' W 080°07'0 0.0
2018-Mar-04 12:55N 26°08' W 080°07'0 0.0
2018-Mar-04 12:21N 26°08' W 080°07'0 0.0
2018-Mar-04 11:59N 26°08' W 080°07'0 0.0
2018-Mar-04 11:29N 26°08' W 080°07'0 0.0
2018-Mar-04 10:58N 26°08' W 080°07'0 0.0
2018-Mar-04 10:29N 26°08' W 080°07'0 0.0
2018-Mar-04 09:59N 26°08' W 080°07'0 0.0
2018-Mar-04 09:27N 26°08' W 080°07'0 0.0
2018-Mar-04 09:00N 26°08' W 080°07'0 0.0
2018-Mar-04 08:30N 26°08' W 080°07'0 0.0
2018-Mar-04 08:00N 26°08' W 080°07'0 0.0
2018-Mar-04 07:30N 26°08' W 080°07'0 0.0
2018-Mar-04 07:00N 26°08' W 080°07'0 0.0
2018-Mar-04 06:31N 26°08' W 080°07'0 0.0
2018-Mar-04 06:00N 26°08' W 080°07'0 0.0
2018-Mar-04 05:29N 26°08' W 080°07'0 0.0
2018-Mar-04 04:59N 26°08' W 080°07'0 0.0
2018-Mar-04 04:28N 26°08' W 080°07'0 0.0
2018-Mar-04 04:00N 26°08' W 080°07'0 0.0
2018-Mar-04 03:30N 26°08' W 080°07'0 0.0
2018-Mar-04 03:00N 26°08' W 080°07'0 0.0
2018-Mar-04 02:30N 26°08' W 080°07'0 0.0
2018-Mar-04 01:58N 26°08' W 080°07'0 0.0
2018-Mar-04 01:29N 26°08' W 080°07'0 0.0
2018-Mar-04 01:00N 26°08' W 080°07'0 0.0
2018-Mar-04 00:29N 26°08' W 080°07'0 0.0
2018-Mar-04 00:00N 26°08' W 080°07'0 0.0
2018-Mar-03 23:30N 26°08' W 080°07'0 0.0
2018-Mar-03 22:56N 26°08' W 080°07'0 0.0
2018-Mar-03 22:17N 26°08' W 080°07'0 0.0
2018-Mar-03 21:49N 26°08' W 080°07'0 0.0
2018-Mar-03 21:30N 26°08' W 080°07'0 0.0
2018-Mar-03 20:58N 26°08' W 080°07'0 0.0
2018-Mar-03 20:30N 26°08' W 080°07'0 0.0
2018-Mar-03 20:00N 26°08' W 080°07'0 0.0
2018-Mar-03 19:30N 26°08' W 080°07'0 0.0
2018-Mar-03 19:00N 26°08' W 080°07'0 0.0
2018-Mar-03 18:30N 26°08' W 080°07'0 0.0
2018-Mar-03 18:00N 26°08' W 080°07'0 0.0
2018-Mar-03 17:29N 26°08' W 080°07'0 0.0
2018-Mar-03 16:58N 26°08' W 080°07'0 0.0
2018-Mar-03 16:27N 26°08' W 080°07'0 0.0
2018-Mar-03 15:58N 26°08' W 080°07'0 0.0
2018-Mar-03 15:26N 26°08' W 080°07'0 0.0
2018-Mar-03 14:53N 26°08' W 080°07'0 0.0
2018-Mar-03 14:17N 26°08' W 080°07'0 0.0
2018-Mar-03 14:00N 26°08' W 080°07'0 0.0
2018-Mar-03 13:27N 26°08' W 080°07'0 0.0
2018-Mar-03 13:00N 26°08' W 080°07'0 0.0
2018-Mar-03 12:25N 26°08' W 080°07'0 0.0
2018-Mar-03 11:55N 26°08' W 080°07'0 0.0
2018-Mar-03 11:30N 26°08' W 080°07'0 0.0
2018-Mar-03 10:59N 26°08' W 080°07'0 0.0
2018-Mar-03 10:29N 26°08' W 080°07'0 0.0
2018-Mar-03 09:56N 26°08' W 080°07'0 0.0
2018-Mar-03 09:30N 26°08' W 080°07'0 0.0
2018-Mar-03 09:00N 26°08' W 080°07'0 0.0
2018-Mar-03 08:29N 26°08' W 080°07'0 0.0
2018-Mar-03 08:00N 26°08' W 080°07'0 0.0
2018-Mar-03 07:30N 26°08' W 080°07'0 0.0
2018-Mar-03 07:00N 26°08' W 080°07'0 0.0
2018-Mar-03 06:30N 26°08' W 080°07'0 0.0
2018-Mar-03 06:00N 26°08' W 080°07'0 0.0
2018-Mar-03 05:31N 26°08' W 080°07'0 0.0
2018-Mar-03 05:00N 26°08' W 080°07'0 0.0
2018-Mar-03 04:28N 26°08' W 080°07'0 0.0
2018-Mar-03 03:56N 26°08' W 080°07'0 0.0
2018-Mar-03 03:26N 26°08' W 080°07'0 0.0
2018-Mar-03 03:00N 26°08' W 080°07'0 0.0
2018-Mar-03 02:29N 26°08' W 080°07'0 0.0
2018-Mar-03 02:00N 26°08' W 080°07'0 0.0
2018-Mar-03 01:30N 26°08' W 080°07'0 0.0
2018-Mar-03 00:54N 26°08' W 080°07'0 0.0
2018-Mar-03 00:29N 26°08' W 080°07'0 0.0
2018-Mar-02 23:57N 26°08' W 080°07'0 0.0
2018-Mar-02 23:30N 26°08' W 080°07'0 0.0
2018-Mar-02 22:49N 26°08' W 080°07'0 0.0
2018-Mar-02 22:30N 26°08' W 080°07'0 0.0
2018-Mar-02 22:00N 26°08' W 080°07'0 0.0
2018-Mar-02 21:26N 26°08' W 080°07'0 0.0
2018-Mar-02 20:49N 26°08' W 080°07'0 0.0
2018-Mar-02 20:30N 26°08' W 080°07'0 0.0
2018-Mar-02 19:50N 26°08' W 080°07'0 0.0
2018-Mar-02 19:29N 26°08' W 080°07'0 0.0
2018-Mar-02 19:00N 26°08' W 080°07'0 0.0
2018-Mar-02 17:24N 26°08' W 080°07'0 0.0
2018-Mar-02 16:58N 26°08' W 080°07'0 0.0
2018-Mar-02 16:26N 26°08' W 080°07'0 0.0
2018-Mar-02 16:00N 26°08' W 080°07'0 0.0
2018-Mar-02 15:24N 26°08' W 080°07'0 0.0
2018-Mar-02 14:59N 26°08' W 080°07'0 0.0
2018-Mar-02 14:26N 26°08' W 080°07'0 0.0
2018-Mar-02 13:51N 26°08' W 080°07'0 0.0
2018-Mar-02 13:30N 26°08' W 080°07'0 0.0
2018-Mar-02 13:00N 26°08' W 080°07'0 0.0
2018-Mar-02 12:30N 26°08' W 080°07'0 0.0
2018-Mar-02 12:00N 26°08' W 080°07'0 0.0
2018-Mar-02 11:29N 26°08' W 080°07'0 0.0
2018-Mar-02 11:00N 26°08' W 080°07'0 0.0
2018-Mar-02 10:30N 26°08' W 080°07'0 0.0
2018-Mar-02 10:00N 26°08' W 080°07'0 0.0
2018-Mar-02 09:30N 26°08' W 080°07'0 0.0
2018-Mar-02 09:00N 26°08' W 080°07'0 0.0
2018-Mar-02 08:30N 26°08' W 080°07'0 0.0
2018-Mar-02 08:00N 26°08' W 080°07'0 0.0
2018-Mar-02 07:30N 26°08' W 080°07'0 0.0
2018-Mar-02 07:00N 26°08' W 080°07'0 0.0
2018-Mar-02 06:30N 26°08' W 080°07'0 0.0
2018-Mar-02 05:54N 26°08' W 080°07'0 0.0
2018-Mar-02 05:25N 26°08' W 080°07'0 0.0
2018-Mar-02 04:59N 26°08' W 080°07'0 0.0
2018-Mar-02 04:30N 26°08' W 080°07'0 0.0
2018-Mar-02 04:01N 26°08' W 080°07'0 0.0
2018-Mar-02 03:29N 26°08' W 080°07'0 0.0
2018-Mar-02 03:01N 26°08' W 080°07'0 0.0
2018-Mar-02 02:30N 26°08' W 080°07'0 0.0
2018-Mar-02 01:59N 26°08' W 080°07'0 0.0
2018-Mar-02 01:30N 26°08' W 080°07'0 0.0
2018-Mar-02 01:00N 26°08' W 080°07'0 0.0
2018-Mar-02 00:31N 26°08' W 080°07'0 0.0
2018-Mar-02 00:00N 26°08' W 080°07'0 0.0
2018-Mar-01 23:30N 26°08' W 080°07'0 0.0
2018-Mar-01 22:58N 26°08' W 080°07'0 0.0
2018-Mar-01 22:28N 26°08' W 080°07'0 0.0
2018-Mar-01 21:59N 26°08' W 080°07'0 0.0
2018-Mar-01 21:28N 26°08' W 080°07'0 0.0
2018-Mar-01 21:00N 26°08' W 080°07'0 0.0
2018-Mar-01 20:31N 26°08' W 080°07'0 0.0
2018-Mar-01 19:59N 26°08' W 080°07'0 0.0
2018-Mar-01 19:30N 26°08' W 080°07'0 0.0
2018-Mar-01 18:57N 26°08' W 080°07'0 0.0
2018-Mar-01 18:29N 26°08' W 080°07'0 0.0
2018-Mar-01 17:56N 26°08' W 080°07'0 0.0
2018-Mar-01 17:27N 26°08' W 080°07'0 0.0
2018-Mar-01 16:57N 26°08' W 080°07'0 0.0
2018-Mar-01 16:30N 26°08' W 080°07'0 0.0
2018-Mar-01 16:00N 26°08' W 080°07'0 0.0
2018-Mar-01 15:30N 26°08' W 080°07'0 0.0
2018-Mar-01 15:00N 26°08' W 080°07'0 0.0
2018-Mar-01 14:30N 26°08' W 080°07'0 0.0
2018-Mar-01 14:00N 26°08' W 080°07'0 0.0
2018-Mar-01 13:29N 26°08' W 080°07'0 0.0
2018-Mar-01 12:59N 26°08' W 080°07'0 0.0
2018-Mar-01 12:30N 26°08' W 080°07'0 0.0
2018-Mar-01 11:58N 26°08' W 080°07'0 0.0
2018-Mar-01 11:28N 26°08' W 080°07'0 0.0
2018-Mar-01 11:00N 26°08' W 080°07'0 0.0
2018-Mar-01 10:30N 26°08' W 080°07'0 0.0
2018-Mar-01 10:00N 26°08' W 080°07'0 0.0
2018-Mar-01 09:30N 26°08' W 080°07'0 0.0
2018-Mar-01 09:00N 26°08' W 080°07'0 0.0
2018-Mar-01 08:30N 26°08' W 080°07'0 0.0
2018-Mar-01 08:00N 26°08' W 080°07'0 0.0
2018-Mar-01 07:30N 26°08' W 080°07'0 0.0
2018-Mar-01 07:00N 26°08' W 080°07'0 0.0
2018-Mar-01 06:30N 26°08' W 080°07'0 0.0
2018-Mar-01 06:00N 26°08' W 080°07'0 0.0
2018-Mar-01 05:30N 26°08' W 080°07'0 0.0
2018-Mar-01 05:00N 26°08' W 080°07'0 0.0
2018-Mar-01 04:30N 26°08' W 080°07'0 0.0
2018-Mar-01 04:00N 26°08' W 080°07'0 0.0
2018-Mar-01 03:29N 26°08' W 080°07'0 0.0
2018-Mar-01 03:00N 26°08' W 080°07'0 0.0
2018-Mar-01 02:30N 26°08' W 080°07'0 0.0
2018-Mar-01 02:00N 26°08' W 080°07'0 0.0
2018-Mar-01 01:30N 26°08' W 080°07'0 0.0
2018-Mar-01 01:00N 26°08' W 080°07'0 0.0
2018-Mar-01 00:30N 26°08' W 080°07'0 0.0
2018-Mar-01 00:00N 26°08' W 080°07'0 0.0
2018-Feb-28 23:30N 26°08' W 080°07'0 0.0
2018-Feb-28 23:00N 26°08' W 080°07'0 0.0
2018-Feb-28 22:30N 26°08' W 080°07'0 0.0
2018-Feb-28 22:00N 26°08' W 080°07'0 0.0
2018-Feb-28 21:30N 26°08' W 080°07'0 0.0
2018-Feb-28 21:00N 26°08' W 080°07'0 0.0
2018-Feb-28 20:29N 26°08' W 080°07'0 0.0
2018-Feb-28 20:00N 26°08' W 080°07'0 0.0
2018-Feb-28 19:30N 26°08' W 080°07'0 0.0
2018-Feb-28 19:00N 26°08' W 080°07'0 0.0
2018-Feb-28 18:30N 26°08' W 080°07'0 0.0
2018-Feb-28 18:00N 26°08' W 080°07'0 0.0
2018-Feb-28 17:30N 26°08' W 080°07'0 0.0
2018-Feb-28 17:00N 26°08' W 080°07'0 0.0
2018-Feb-28 16:30N 26°08' W 080°07'0 0.0
2018-Feb-28 16:00N 26°08' W 080°07'0 0.0
2018-Feb-28 15:30N 26°08' W 080°07'0 0.0
2018-Feb-28 15:00N 26°08' W 080°07'0 0.0
2018-Feb-28 14:30N 26°08' W 080°07'0 0.0
2018-Feb-28 14:00N 26°08' W 080°07'0 0.0
2018-Feb-28 13:30N 26°08' W 080°07'0 0.0
2018-Feb-28 13:00N 26°08' W 080°07'0 0.0
2018-Feb-28 12:30N 26°08' W 080°07'0 0.0
2018-Feb-28 12:00N 26°08' W 080°07'0 0.0
2018-Feb-28 11:30N 26°08' W 080°07'0 0.0
2018-Feb-28 11:00N 26°08' W 080°07'0 0.0
2018-Feb-28 10:30N 26°08' W 080°07'0 0.0
2018-Feb-28 10:00N 26°08' W 080°07'0 0.0
2018-Feb-28 09:30N 26°08' W 080°07'0 0.0
2018-Feb-28 09:00N 26°08' W 080°07'0 0.0
2018-Feb-28 08:30N 26°08' W 080°07'0 0.0
2018-Feb-28 08:00N 26°08' W 080°07'0 0.0
2018-Feb-28 07:30N 26°08' W 080°07'0 0.0
2018-Feb-28 07:00N 26°08' W 080°07'0 0.0
2018-Feb-28 06:30N 26°08' W 080°07'0 0.0
2018-Feb-28 06:00N 26°08' W 080°07'0 0.0
2018-Feb-28 05:30N 26°08' W 080°07'0 0.0
2018-Feb-28 05:00N 26°08' W 080°07'0 0.0
2018-Feb-28 04:30N 26°08' W 080°07'0 0.0
2018-Feb-28 04:00N 26°08' W 080°07'0 0.0
2018-Feb-28 03:30N 26°08' W 080°07'0 0.0
2018-Feb-28 03:00N 26°08' W 080°07'0 0.0
2018-Feb-28 02:30N 26°08' W 080°07'0 0.0
2018-Feb-28 02:00N 26°08' W 080°07'0 0.0
2018-Feb-28 01:30N 26°08' W 080°07'0 0.0
2018-Feb-28 01:00N 26°08' W 080°07'0 0.0
2018-Feb-28 00:30N 26°08' W 080°07'0 0.0
2018-Feb-28 00:00N 26°08' W 080°07'0 0.0
2018-Feb-27 23:29N 26°08' W 080°07'0 0.0
2018-Feb-27 23:00N 26°08' W 080°07'0 0.0
2018-Feb-27 22:30N 26°08' W 080°07'0 0.0
2018-Feb-27 22:00N 26°08' W 080°07'0 0.0
2018-Feb-27 21:30N 26°08' W 080°07'0 0.0
2018-Feb-27 21:00N 26°08' W 080°07'  
Track history (hours):
 
Tides and Currents Weather Stations Pressure Air Temp Water Temp Dewpoint Dewpoint Depression Visibility Wind Speed Wind Dir Waves Ship Positions

Isis

Owner: Landover Marine LLC, Newmarket, NH. More information available from US FCC via Universal Licensing System and Coast Guard Vessel Documentation Center.

Last reported at 2018-Mar-09 20:50 UTC. Time now 2018-Apr-26 03:41 UTC.
Position N 25°29' W 080°09'.
Warning: this ship's position is 47 days out of date.

Length 30 m; draft 8 m.

Type: Pleasure craft. MMSI: 367636310.

Date/timePositionNaut miles runAvg speedWind from/ knotsBaromVisibWave heightAir tempDewpointWater temp
2018-Mar-09 20:50N 25°29' W 080°09'3 8.9
2018-Mar-09 20:30N 25°32' W 080°08'3 7.1
2018-Mar-09 20:00N 25°36' W 080°07'5 9.1
2018-Mar-09 19:30N 25°40' W 080°07'5 9.7
2018-Mar-09 19:01N 25°45' W 080°06'510.5
2018-Mar-09 18:30N 25°50' W 080°06'510.0
2018-Mar-09 18:00N 25°55' W 080°05'4 8.9
2018-Mar-09 17:30N 25°59' W 080°05'4 8.0
2018-Mar-09 17:00N 26°03' W 080°05'4 7.2
2018-Mar-09 16:30N 26°06' W 080°07'2 3.4
2018-Mar-09 16:00N 26°08' W 080°07'0 0.1
2018-Mar-09 15:30N 26°08' W 080°07'0 0.0
2018-Mar-09 15:00N 26°08' W 080°07'0 0.0
2018-Mar-09 14:30N 26°08' W 080°07'0 0.0
2018-Mar-09 14:00N 26°08' W 080°07'0 0.0
2018-Mar-09 13:30N 26°08' W 080°07'0 0.0
2018-Mar-09 13:00N 26°08' W 080°07'0 0.0
2018-Mar-09 12:31N 26°08' W 080°07'0 0.0
2018-Mar-09 12:00N 26°08' W 080°07'0 0.0
2018-Mar-09 11:30N 26°08' W 080°07'0 0.0
2018-Mar-09 11:00N 26°08' W 080°07'0 0.0
2018-Mar-09 10:30N 26°08' W 080°07'0 0.0
2018-Mar-09 10:00N 26°08' W 080°07'0 0.0
2018-Mar-09 09:30N 26°08' W 080°07'0 0.0
2018-Mar-09 09:00N 26°08' W 080°07'0 0.0
2018-Mar-09 08:30N 26°08' W 080°07'0 0.0
2018-Mar-09 08:00N 26°08' W 080°07'0 0.0
2018-Mar-09 07:30N 26°08' W 080°07'0 0.0
2018-Mar-09 07:00N 26°08' W 080°07'0 0.0
2018-Mar-09 06:30N 26°08' W 080°07'0 0.0
2018-Mar-09 06:00N 26°08' W 080°07'0 0.0
2018-Mar-09 05:30N 26°08' W 080°07'0 0.0
2018-Mar-09 05:00N 26°08' W 080°07'0 0.0
2018-Mar-09 04:30N 26°08' W 080°07'0 0.0
2018-Mar-09 04:00N 26°08' W 080°07'0 0.0
2018-Mar-09 03:30N 26°08' W 080°07'0 0.0
2018-Mar-09 03:00N 26°08' W 080°07'0 0.0
2018-Mar-09 02:30N 26°08' W 080°07'0 0.0
2018-Mar-09 02:00N 26°08' W 080°07'0 0.0
2018-Mar-09 01:30N 26°08' W 080°07'0 0.0
2018-Mar-09 01:00N 26°08' W 080°07'0 0.0
2018-Mar-09 00:30N 26°08' W 080°07'0 0.0
2018-Mar-09 00:00N 26°08' W 080°07'0 0.0
2018-Mar-08 23:30N 26°08' W 080°07'0 0.0
2018-Mar-08 23:00N 26°08' W 080°07'0 0.0
2018-Mar-08 22:30N 26°08' W 080°07'0 0.0
2018-Mar-08 22:00N 26°08' W 080°07'0 0.0
2018-Mar-08 21:30N 26°08' W 080°07'0 0.0
2018-Mar-08 21:00N 26°08' W 080°07'0 0.0
2018-Mar-08 20:30N 26°08' W 080°07'0 0.0
2018-Mar-07 22:00N 26°08' W 080°07'0 0.0
2018-Mar-07 21:30N 26°08' W 080°07'0 0.0
2018-Mar-07 21:00N 26°08' W 080°07'0 0.0
2018-Mar-07 20:30N 26°08' W 080°07'0 0.0
2018-Mar-07 20:00N 26°08' W 080°07'0 0.0
2018-Mar-07 19:28N 26°08' W 080°07'0 0.0
2018-Mar-07 19:00N 26°08' W 080°07'0 0.2
2018-Mar-07 18:30N 26°08' W 080°07'1 2.6
2018-Mar-07 18:00N 26°07' W 080°07'1 2.4
2018-Mar-07 17:30N 26°06' W 080°06'3 5.2
2018-Mar-07 17:00N 26°06' W 080°03'4 7.1
2018-Mar-07 16:30N 26°06' W 080°07'2 3.3
2018-Mar-07 16:00N 26°08' W 080°07'0 0.0
2018-Mar-07 15:30N 26°08' W 080°07'0 0.0
2018-Mar-07 15:00N 26°08' W 080°07'0 0.0
2018-Mar-07 14:30N 26°08' W 080°07'0 0.0
2018-Mar-07 14:00N 26°08' W 080°07'0 0.0
2018-Mar-07 13:30N 26°08' W 080°07'0 0.0
2018-Mar-07 13:00N 26°08' W 080°07'0 0.0
2018-Mar-07 12:30N 26°08' W 080°07'0 0.0
2018-Mar-07 12:00N 26°08' W 080°07'0 0.0
2018-Mar-07 11:30N 26°08' W 080°07'0 0.0
2018-Mar-07 11:00N 26°08' W 080°07'0 0.0
2018-Mar-07 10:30N 26°08' W 080°07'0 0.0
2018-Mar-07 10:00N 26°08' W 080°07'0 0.0
2018-Mar-07 09:30N 26°08' W 080°07'0 0.0
2018-Mar-07 09:00N 26°08' W 080°07'0 0.0
2018-Mar-07 08:30N 26°08' W 080°07'0 0.0
2018-Mar-07 08:00N 26°08' W 080°07'0 0.0
2018-Mar-07 07:30N 26°08' W 080°07'0 0.0
2018-Mar-07 07:00N 26°08' W 080°07'0 0.0
2018-Mar-07 06:30N 26°08' W 080°07'0 0.0
2018-Mar-07 06:00N 26°08' W 080°07'0 0.0
2018-Mar-07 05:30N 26°08' W 080°07'0 0.0
2018-Mar-07 05:00N 26°08' W 080°07'0 0.0
2018-Mar-07 04:30N 26°08' W 080°07'0 0.0
2018-Mar-07 03:59N 26°08' W 080°07'0 0.0
2018-Mar-07 03:30N 26°08' W 080°07'0 0.0
2018-Mar-07 03:01N 26°08' W 080°07'0 0.0
2018-Mar-07 02:30N 26°08' W 080°07'0 0.0
2018-Mar-07 02:00N 26°08' W 080°07'0 0.0
2018-Mar-07 01:30N 26°08' W 080°07'0 0.0
2018-Mar-07 01:00N 26°08' W 080°07'0 0.0
2018-Mar-07 00:30N 26°08' W 080°07'0 0.0
2018-Mar-07 00:00N 26°08' W 080°07'0 0.0
2018-Mar-06 23:30N 26°08' W 080°07'0 0.0
2018-Mar-06 23:00N 26°08' W 080°07'0 0.0
2018-Mar-06 22:30N 26°08' W 080°07'0 0.0
2018-Mar-06 22:00N 26°08' W 080°07'0 0.0
2018-Mar-06 21:30N 26°08' W 080°07'0 0.0
2018-Mar-06 21:00N 26°08' W 080°07'0 0.0
2018-Mar-06 20:30N 26°08' W 080°07'0 0.0
2018-Mar-06 20:00N 26°08' W 080°07'0 0.0
2018-Mar-06 19:30N 26°08' W 080°07'0 0.0
2018-Mar-06 19:00N 26°08' W 080°07'0 0.0
2018-Mar-06 18:30N 26°08' W 080°07'0 0.0
2018-Mar-06 18:00N 26°08' W 080°07'0 0.0
2018-Mar-06 17:31N 26°08' W 080°07'0 0.0
2018-Mar-06 17:00N 26°08' W 080°07'0 0.0
2018-Mar-06 16:30N 26°08' W 080°07'0 0.0
2018-Mar-06 16:00N 26°08' W 080°07'0 0.0
2018-Mar-06 15:31N 26°08' W 080°07'0 0.0
2018-Mar-06 15:00N 26°08' W 080°07'0 0.0
2018-Mar-06 14:30N 26°08' W 080°07'0 0.0
2018-Mar-06 14:00N 26°08' W 080°07'0 0.0
2018-Mar-06 13:30N 26°08' W 080°07'0 0.0
2018-Mar-06 13:00N 26°08' W 080°07'0 0.0
2018-Mar-06 12:30N 26°08' W 080°07'0 0.0
2018-Mar-06 12:00N 26°08' W 080°07'0 0.0
2018-Mar-06 11:30N 26°08' W 080°07'0 0.0
2018-Mar-06 11:00N 26°08' W 080°07'0 0.0
2018-Mar-06 10:30N 26°08' W 080°07'0 0.0
2018-Mar-06 10:00N 26°08' W 080°07'0 0.0
2018-Mar-06 09:30N 26°08' W 080°07'0 0.0
2018-Mar-06 09:00N 26°08' W 080°07'0 0.0
2018-Mar-06 08:30N 26°08' W 080°07'0 0.0
2018-Mar-06 08:00N 26°08' W 080°07'0 0.0
2018-Mar-06 07:30N 26°08' W 080°07'0 0.0
2018-Mar-06 07:00N 26°08' W 080°07'0 0.0
2018-Mar-06 06:30N 26°08' W 080°07'0 0.0
2018-Mar-06 06:00N 26°08' W 080°07'0 0.0
2018-Mar-06 05:30N 26°08' W 080°07'0 0.0
2018-Mar-06 05:00N 26°08' W 080°07'0 0.0
2018-Mar-06 04:30N 26°08' W 080°07'0 0.0
2018-Mar-06 04:00N 26°08' W 080°07'0 0.0
2018-Mar-06 03:30N 26°08' W 080°07'0 0.0
2018-Mar-06 03:00N 26°08' W 080°07'0 0.0
2018-Mar-06 02:30N 26°08' W 080°07'0 0.0
2018-Mar-06 02:00N 26°08' W 080°07'0 0.0
2018-Mar-06 01:31N 26°08' W 080°07'0 0.0
2018-Mar-06 00:59N 26°08' W 080°07'0 0.0
2018-Mar-06 00:30N 26°08' W 080°07'0 0.0
2018-Mar-06 00:01N 26°08' W 080°07'0 0.0
2018-Mar-05 23:30N 26°08' W 080°07'0 0.0
2018-Mar-05 23:00N 26°08' W 080°07'0 0.0
2018-Mar-05 22:30N 26°08' W 080°07'0 0.0
2018-Mar-05 22:00N 26°08' W 080°07'0 0.0
2018-Mar-05 21:29N 26°08' W 080°07'0 0.0
2018-Mar-05 21:00N 26°08' W 080°07'0 0.0
2018-Mar-05 20:30N 26°08' W 080°07'0 0.0
2018-Mar-05 20:00N 26°08' W 080°07'0 0.0
2018-Mar-05 19:30N 26°08' W 080°07'0 0.0
2018-Mar-05 19:00N 26°08' W 080°07'0 0.0
2018-Mar-05 18:30N 26°08' W 080°07'0 0.0
2018-Mar-05 18:00N 26°08' W 080°07'0 0.0
2018-Mar-05 17:30N 26°08' W 080°07'0 0.0
2018-Mar-05 17:00N 26°08' W 080°07'0 0.0
2018-Mar-05 16:30N 26°08' W 080°07'0 0.0
2018-Mar-05 16:00N 26°08' W 080°07'0 0.0
2018-Mar-05 15:29N 26°08' W 080°07'0 0.0
2018-Mar-05 15:00N 26°08' W 080°07'0 0.0
2018-Mar-05 14:30N 26°08' W 080°07'0 0.0
2018-Mar-05 14:00N 26°08' W 080°07'0 0.0
2018-Mar-05 13:30N 26°08' W 080°07'0 0.0
2018-Mar-05 13:00N 26°08' W 080°07'0 0.0
2018-Mar-05 12:30N 26°08' W 080°07'0 0.0
2018-Mar-05 12:00N 26°08' W 080°07'0 0.0
2018-Mar-05 11:30N 26°08' W 080°07'0 0.0
2018-Mar-05 11:00N 26°08' W 080°07'0 0.0
2018-Mar-05 10:29N 26°08' W 080°07'0 0.0
2018-Mar-05 10:00N 26°08' W 080°07'0 0.0
2018-Mar-05 09:30N 26°08' W 080°07'0 0.0
2018-Mar-05 09:00N 26°08' W 080°07'0 0.0
2018-Mar-05 08:30N 26°08' W 080°07'0 0.0
2018-Mar-05 08:00N 26°08' W 080°07'0 0.0
2018-Mar-05 07:30N 26°08' W 080°07'0 0.0
2018-Mar-05 07:00N 26°08' W 080°07'0 0.0
2018-Mar-05 06:30N 26°08' W 080°07'0 0.0
2018-Mar-05 06:00N 26°08' W 080°07'0 0.0
2018-Mar-05 05:30N 26°08' W 080°07'0 0.0
2018-Mar-05 05:00N 26°08' W 080°07'0 0.0
2018-Mar-05 04:30N 26°08' W 080°07'0 0.0
2018-Mar-05 04:00N 26°08' W 080°07'0 0.0
2018-Mar-05 03:30N 26°08' W 080°07'0 0.0
2018-Mar-05 03:00N 26°08' W 080°07'0 0.0
2018-Mar-05 02:30N 26°08' W 080°07'0 0.0
2018-Mar-05 02:00N 26°08' W 080°07'0 0.0
2018-Mar-05 01:30N 26°08' W 080°07'0 0.0
2018-Mar-05 01:00N 26°08' W 080°07'0 0.0
2018-Mar-05 00:30N 26°08' W 080°07'0 0.0
2018-Mar-05 00:00N 26°08' W 080°07'0 0.0
2018-Mar-04 23:30N 26°08' W 080°07'0 0.0
2018-Mar-04 23:00N 26°08' W 080°07'0 0.0
2018-Mar-04 22:31N 26°08' W 080°07'0 0.0
2018-Mar-04 22:00N 26°08' W 080°07'0 0.0
2018-Mar-04 21:30N 26°08' W 080°07'0 0.0
2018-Mar-04 21:00N 26°08' W 080°07'0 0.0
2018-Mar-04 20:30N 26°08' W 080°07'0 0.0
2018-Mar-04 20:00N 26°08' W 080°07'0 0.0
2018-Mar-04 19:30N 26°08' W 080°07'0 0.0
2018-Mar-04 19:01N 26°08' W 080°07'0 0.0
2018-Mar-04 18:30N 26°08' W 080°07'0 0.0
2018-Mar-04 18:00N 26°08' W 080°07'0 0.0
2018-Mar-04 17:30N 26°08' W 080°07'0 0.0
2018-Mar-04 17:00N 26°08' W 080°07'0 0.0
2018-Mar-04 16:28N 26°08' W 080°07'0 0.0
2018-Mar-04 16:00N 26°08' W 080°07'0 0.0
2018-Mar-04 15:30N 26°08' W 080°07'0 0.0
2018-Mar-04 14:57N 26°08' W 080°07'0 0.0
2018-Mar-04 14:30N 26°08' W 080°07'0 0.0
2018-Mar-04 13:57N 26°08' W 080°07'0 0.0
2018-Mar-04 13:30N 26°08' W 080°07'0 0.0
2018-Mar-04 12:55N 26°08' W 080°07'0 0.0
2018-Mar-04 12:21N 26°08' W 080°07'0 0.0
2018-Mar-04 11:59N 26°08' W 080°07'0 0.0
2018-Mar-04 11:29N 26°08' W 080°07'0 0.0
2018-Mar-04 10:58N 26°08' W 080°07'0 0.0
2018-Mar-04 10:29N 26°08' W 080°07'0 0.0
2018-Mar-04 09:59N 26°08' W 080°07'0 0.0
2018-Mar-04 09:27N 26°08' W 080°07'0 0.0
2018-Mar-04 09:00N 26°08' W 080°07'0 0.0
2018-Mar-04 08:30N 26°08' W 080°07'0 0.0
2018-Mar-04 08:00N 26°08' W 080°07'0 0.0
2018-Mar-04 07:30N 26°08' W 080°07'0 0.0
2018-Mar-04 07:00N 26°08' W 080°07'0 0.0
2018-Mar-04 06:31N 26°08' W 080°07'0 0.0
2018-Mar-04 06:00N 26°08' W 080°07'0 0.0
2018-Mar-04 05:29N 26°08' W 080°07'0 0.0
2018-Mar-04 04:59N 26°08' W 080°07'0 0.0
2018-Mar-04 04:28N 26°08' W 080°07'0 0.0
2018-Mar-04 04:00N 26°08' W 080°07'0 0.0
2018-Mar-04 03:30N 26°08' W 080°07'0 0.0
2018-Mar-04 03:00N 26°08' W 080°07'0 0.0
2018-Mar-04 02:30N 26°08' W 080°07'0 0.0
2018-Mar-04 01:58N 26°08' W 080°07'0 0.0
2018-Mar-04 01:29N 26°08' W 080°07'0 0.0
2018-Mar-04 01:00N 26°08' W 080°07'0 0.0
2018-Mar-04 00:29N 26°08' W 080°07'0 0.0
2018-Mar-04 00:00N 26°08' W 080°07'0 0.0
2018-Mar-03 23:30N 26°08' W 080°07'0 0.0
2018-Mar-03 22:56N 26°08' W 080°07'0 0.0
2018-Mar-03 22:17N 26°08' W 080°07'0 0.0
2018-Mar-03 21:49N 26°08' W 080°07'0 0.0
2018-Mar-03 21:30N 26°08' W 080°07'0 0.0
2018-Mar-03 20:58N 26°08' W 080°07'0 0.0
2018-Mar-03 20:30N 26°08' W 080°07'0 0.0
2018-Mar-03 20:00N 26°08' W 080°07'0 0.0
2018-Mar-03 19:30N 26°08' W 080°07'0 0.0
2018-Mar-03 19:00N 26°08' W 080°07'0 0.0
2018-Mar-03 18:30N 26°08' W 080°07'0 0.0
2018-Mar-03 18:00N 26°08' W 080°07'0 0.0
2018-Mar-03 17:29N 26°08' W 080°07'0 0.0
2018-Mar-03 16:58N 26°08' W 080°07'0 0.0
2018-Mar-03 16:27N 26°08' W 080°07'0 0.0
2018-Mar-03 15:58N 26°08' W 080°07'0 0.0
2018-Mar-03 15:26N 26°08' W 080°07'0 0.0
2018-Mar-03 14:53N 26°08' W 080°07'0 0.0
2018-Mar-03 14:17N 26°08' W 080°07'0 0.0
2018-Mar-03 14:00N 26°08' W 080°07'0 0.0
2018-Mar-03 13:27N 26°08' W 080°07'0 0.0
2018-Mar-03 13:00N 26°08' W 080°07'0 0.0
2018-Mar-03 12:25N 26°08' W 080°07'0 0.0
2018-Mar-03 11:55N 26°08' W 080°07'0 0.0
2018-Mar-03 11:30N 26°08' W 080°07'0 0.0
2018-Mar-03 10:59N 26°08' W 080°07'0 0.0
2018-Mar-03 10:29N 26°08' W 080°07'0 0.0
2018-Mar-03 09:56N 26°08' W 080°07'0 0.0
2018-Mar-03 09:30N 26°08' W 080°07'0 0.0
2018-Mar-03 09:00N 26°08' W 080°07'0 0.0
2018-Mar-03 08:29N 26°08' W 080°07'0 0.0
2018-Mar-03 08:00N 26°08' W 080°07'0 0.0
2018-Mar-03 07:30N 26°08' W 080°07'0 0.0
2018-Mar-03 07:00N 26°08' W 080°07'0 0.0
2018-Mar-03 06:30N 26°08' W 080°07'0 0.0
2018-Mar-03 06:00N 26°08' W 080°07'0 0.0
2018-Mar-03 05:31N 26°08' W 080°07'0 0.0
2018-Mar-03 05:00N 26°08' W 080°07'0 0.0
2018-Mar-03 04:28N 26°08' W 080°07'0 0.0
2018-Mar-03 03:56N 26°08' W 080°07'0 0.0
2018-Mar-03 03:26N 26°08' W 080°07'0 0.0
2018-Mar-03 03:00N 26°08' W 080°07'0 0.0
2018-Mar-03 02:29N 26°08' W 080°07'0 0.0
2018-Mar-03 02:00N 26°08' W 080°07'0 0.0
2018-Mar-03 01:30N 26°08' W 080°07'0 0.0
2018-Mar-03 00:54N 26°08' W 080°07'0 0.0
2018-Mar-03 00:29N 26°08' W 080°07'0 0.0
2018-Mar-02 23:57N 26°08' W 080°07'0 0.0
2018-Mar-02 23:30N 26°08' W 080°07'0 0.0
2018-Mar-02 22:49N 26°08' W 080°07'0 0.0
2018-Mar-02 22:30N 26°08' W 080°07'0 0.0
2018-Mar-02 22:00N 26°08' W 080°07'0 0.0
2018-Mar-02 21:26N 26°08' W 080°07'0 0.0
2018-Mar-02 20:49N 26°08' W 080°07'0 0.0
2018-Mar-02 20:30N 26°08' W 080°07'0 0.0
2018-Mar-02 19:50N 26°08' W 080°07'0 0.0
2018-Mar-02 19:29N 26°08' W 080°07'0 0.0
2018-Mar-02 19:00N 26°08' W 080°07'0 0.0
2018-Mar-02 17:24N 26°08' W 080°07'0 0.0
2018-Mar-02 16:58N 26°08' W 080°07'0 0.0
2018-Mar-02 16:26N 26°08' W 080°07'0 0.0
2018-Mar-02 16:00N 26°08' W 080°07'0 0.0
2018-Mar-02 15:24N 26°08' W 080°07'0 0.0
2018-Mar-02 14:59N 26°08' W 080°07'0 0.0
2018-Mar-02 14:26N 26°08' W 080°07'0 0.0
2018-Mar-02 13:51N 26°08' W 080°07'0 0.0
2018-Mar-02 13:30N 26°08' W 080°07'0 0.0
2018-Mar-02 13:00N 26°08' W 080°07'0 0.0
2018-Mar-02 12:30N 26°08' W 080°07'0 0.0
2018-Mar-02 12:00N 26°08' W 080°07'0 0.0
2018-Mar-02 11:29N 26°08' W 080°07'0 0.0
2018-Mar-02 11:00N 26°08' W 080°07'0 0.0
2018-Mar-02 10:30N 26°08' W 080°07'0 0.0
2018-Mar-02 10:00N 26°08' W 080°07'0 0.0
2018-Mar-02 09:30N 26°08' W 080°07'0 0.0
2018-Mar-02 09:00N 26°08' W 080°07'0 0.0
2018-Mar-02 08:30N 26°08' W 080°07'0 0.0
2018-Mar-02 08:00N 26°08' W 080°07'0 0.0
2018-Mar-02 07:30N 26°08' W 080°07'0 0.0
2018-Mar-02 07:00N 26°08' W 080°07'0 0.0
2018-Mar-02 06:30N 26°08' W 080°07'0 0.0
2018-Mar-02 05:54N 26°08' W 080°07'0 0.0
2018-Mar-02 05:25N 26°08' W 080°07'0 0.0
2018-Mar-02 04:59N 26°08' W 080°07'0 0.0
2018-Mar-02 04:30N 26°08' W 080°07'0 0.0
2018-Mar-02 04:01N 26°08' W 080°07'0 0.0
2018-Mar-02 03:29N 26°08' W 080°07'0 0.0
2018-Mar-02 03:01N 26°08' W 080°07'0 0.0
2018-Mar-02 02:30N 26°08' W 080°07'0 0.0
2018-Mar-02 01:59N 26°08' W 080°07'0 0.0
2018-Mar-02 01:30N 26°08' W 080°07'0 0.0
2018-Mar-02 01:00N 26°08' W 080°07'0 0.0
2018-Mar-02 00:31N 26°08' W 080°07'0 0.0
2018-Mar-02 00:00N 26°08' W 080°07'0 0.0
2018-Mar-01 23:30N 26°08' W 080°07'0 0.0
2018-Mar-01 22:58N 26°08' W 080°07'0 0.0
2018-Mar-01 22:28N 26°08' W 080°07'0 0.0
2018-Mar-01 21:59N 26°08' W 080°07'0 0.0
2018-Mar-01 21:28N 26°08' W 080°07'0 0.0
2018-Mar-01 21:00N 26°08' W 080°07'0 0.0
2018-Mar-01 20:31N 26°08' W 080°07'0 0.0
2018-Mar-01 19:59N 26°08' W 080°07'0 0.0
2018-Mar-01 19:30N 26°08' W 080°07'0 0.0
2018-Mar-01 18:57N 26°08' W 080°07'0 0.0
2018-Mar-01 18:29N 26°08' W 080°07'0 0.0
2018-Mar-01 17:56N 26°08' W 080°07'0 0.0
2018-Mar-01 17:27N 26°08' W 080°07'0 0.0
2018-Mar-01 16:57N 26°08' W 080°07'0 0.0
2018-Mar-01 16:30N 26°08' W 080°07'0 0.0
2018-Mar-01 16:00N 26°08' W 080°07'0 0.0
2018-Mar-01 15:30N 26°08' W 080°07'0 0.0
2018-Mar-01 15:00N 26°08' W 080°07'0 0.0
2018-Mar-01 14:30N 26°08' W 080°07'0 0.0
2018-Mar-01 14:00N 26°08' W 080°07'0 0.0
2018-Mar-01 13:29N 26°08' W 080°07'0 0.0
2018-Mar-01 12:59N 26°08' W 080°07'0 0.0
2018-Mar-01 12:30N 26°08' W 080°07'0 0.0
2018-Mar-01 11:58N 26°08' W 080°07'0 0.0
2018-Mar-01 11:28N 26°08' W 080°07'0 0.0
2018-Mar-01 11:00N 26°08' W 080°07'0 0.0
2018-Mar-01 10:30N 26°08' W 080°07'0 0.0
2018-Mar-01 10:00N 26°08' W 080°07'0 0.0
2018-Mar-01 09:30N 26°08' W 080°07'0 0.0
2018-Mar-01 09:00N 26°08' W 080°07'0 0.0
2018-Mar-01 08:30N 26°08' W 080°07'0 0.0
2018-Mar-01 08:00N 26°08' W 080°07'0 0.0
2018-Mar-01 07:30N 26°08' W 080°07'0 0.0
2018-Mar-01 07:00N 26°08' W 080°07'0 0.0
2018-Mar-01 06:30N 26°08' W 080°07'0 0.0
2018-Mar-01 06:00N 26°08' W 080°07'0 0.0
2018-Mar-01 05:30N 26°08' W 080°07'0 0.0
2018-Mar-01 05:00N 26°08' W 080°07'0 0.0
2018-Mar-01 04:30N 26°08' W 080°07'0 0.0
2018-Mar-01 04:00N 26°08' W 080°07'0 0.0
2018-Mar-01 03:29N 26°08' W 080°07'0 0.0
2018-Mar-01 03:00N 26°08' W 080°07'0 0.0
2018-Mar-01 02:30N 26°08' W 080°07'0 0.0
2018-Mar-01 02:00N 26°08' W 080°07'0 0.0
2018-Mar-01 01:30N 26°08' W 080°07'0 0.0
2018-Mar-01 01:00N 26°08' W 080°07'0 0.0
2018-Mar-01 00:30N 26°08' W 080°07'0 0.0
2018-Mar-01 00:00N 26°08' W 080°07'0 0.0
2018-Feb-28 23:30N 26°08' W 080°07'0 0.0
2018-Feb-28 23:00N 26°08' W 080°07'0 0.0
2018-Feb-28 22:30N 26°08' W 080°07'0 0.0
2018-Feb-28 22:00N 26°08' W 080°07'0 0.0
2018-Feb-28 21:30N 26°08' W 080°07'0 0.0
2018-Feb-28 21:00N 26°08' W 080°07'0 0.0
2018-Feb-28 20:29N 26°08' W 080°07'0 0.0
2018-Feb-28 20:00N 26°08' W 080°07'0 0.0
2018-Feb-28 19:30N 26°08' W 080°07'0 0.0
2018-Feb-28 19:00N 26°08' W 080°07'0 0.0
2018-Feb-28 18:30N 26°08' W 080°07'0 0.0
2018-Feb-28 18:00N 26°08' W 080°07'0 0.0
2018-Feb-28 17:30N 26°08' W 080°07'0 0.0
2018-Feb-28 17:00N 26°08' W 080°07'0 0.0
2018-Feb-28 16:30N 26°08' W 080°07'0 0.0
2018-Feb-28 16:00N 26°08' W 080°07'0 0.0
2018-Feb-28 15:30N 26°08' W 080°07'0 0.0
2018-Feb-28 15:00N 26°08' W 080°07'0 0.0
2018-Feb-28 14:30N 26°08' W 080°07'0 0.0
2018-Feb-28 14:00N 26°08' W 080°07'0 0.0
2018-Feb-28 13:30N 26°08' W 080°07'0 0.0
2018-Feb-28 13:00N 26°08' W 080°07'0 0.0
2018-Feb-28 12:30N 26°08' W 080°07'0 0.0
2018-Feb-28 12:00N 26°08' W 080°07'0 0.0
2018-Feb-28 11:30N 26°08' W 080°07'0 0.0
2018-Feb-28 11:00N 26°08' W 080°07'0 0.0
2018-Feb-28 10:30N 26°08' W 080°07'0 0.0
2018-Feb-28 10:00N 26°08' W 080°07'0 0.0
2018-Feb-28 09:30N 26°08' W 080°07'0 0.0
2018-Feb-28 09:00N 26°08' W 080°07'0 0.0
2018-Feb-28 08:30N 26°08' W 080°07'0 0.0
2018-Feb-28 08:00N 26°08' W 080°07'0 0.0
2018-Feb-28 07:30N 26°08' W 080°07'0 0.0
2018-Feb-28 07:00N 26°08' W 080°07'0 0.0
2018-Feb-28 06:30N 26°08' W 080°07'0 0.0
2018-Feb-28 06:00N 26°08' W 080°07'0 0.0
2018-Feb-28 05:30N 26°08' W 080°07'0 0.0
2018-Feb-28 05:00N 26°08' W 080°07'0 0.0
2018-Feb-28 04:30N 26°08' W 080°07'0 0.0
2018-Feb-28 04:00N 26°08' W 080°07'0 0.0
2018-Feb-28 03:30N 26°08' W 080°07'0 0.0
2018-Feb-28 03:00N 26°08' W 080°07'0 0.0
2018-Feb-28 02:30N 26°08' W 080°07'0 0.0
2018-Feb-28 02:00N 26°08' W 080°07'0 0.0
2018-Feb-28 01:30N 26°08' W 080°07'0 0.0
2018-Feb-28 01:00N 26°08' W 080°07'0 0.0
2018-Feb-28 00:30N 26°08' W 080°07'0 0.0
2018-Feb-28 00:00N 26°08' W 080°07'0 0.0
2018-Feb-27 23:29N 26°08' W 080°07'0 0.0
2018-Feb-27 23:00N 26°08' W 080°07'0 0.0
2018-Feb-27 22:30N 26°08' W 080°07'0 0.0
2018-Feb-27 22:00N 26°08' W 080°07'0 0.0
2018-Feb-27 21:30N 26°08' W 080°07'0 0.0
2018-Feb-27 21:00N 26°08' W 080°07'  

Dump ship's entire track history